createdAt,value
2022-12-11T00:02:04.727Z,100358.22
2022-12-11T00:04:34.723Z,100344.44
2022-12-11T00:07:05.509Z,100354.06
2022-12-11T00:09:34.742Z,100350.09
2022-12-11T00:12:05.375Z,100339.88
2022-12-11T00:14:34.844Z,100345.44
2022-12-11T00:17:04.208Z,100335.22
2022-12-11T00:19:33.518Z,100328.56
2022-12-11T00:22:02.793Z,100348.38
2022-12-11T00:24:34.672Z,100339.16
2022-12-11T00:27:08.955Z,100347.38
2022-12-11T00:29:45.234Z,100349.09
2022-12-11T00:32:16.203Z,100344.59
2022-12-11T00:34:45.590Z,100338.69
2022-12-11T00:37:14.925Z,100339.22
2022-12-11T00:39:45.750Z,100334.38
2022-12-11T00:42:16.462Z,100330.34
2022-12-11T00:44:45.824Z,100338.75
2022-12-11T00:47:15.107Z,100335.50
2022-12-11T00:49:49.562Z,100335.88
2022-12-11T00:52:19.299Z,100336.91
2022-12-11T00:54:50.173Z,100335.28
2022-12-11T00:57:19.432Z,100336.88
2022-12-11T00:59:48.856Z,100346.16
2022-12-11T01:02:18.177Z,100337.03
2022-12-11T01:04:47.458Z,100346.66
2022-12-11T01:07:16.752Z,100355.28
2022-12-11T01:10:03.700Z,100357.13
2022-12-11T01:12:35.445Z,100333.19
2022-12-11T01:15:04.961Z,100359.63
2022-12-11T01:17:34.202Z,100347.91
2022-12-11T01:20:04.434Z,100335.19
2022-12-11T01:22:34.023Z,100352.38
2022-12-11T01:25:04.087Z,100358.94
2022-12-11T01:27:33.410Z,100357.53
2022-12-11T01:30:04.392Z,100360.72
2022-12-11T01:32:33.833Z,100356.25
2022-12-11T01:35:04.966Z,100357.56
2022-12-11T01:37:35.107Z,100354.13
2022-12-11T01:40:06.891Z,100353.41
2022-12-11T01:42:36.894Z,100322.19
2022-12-11T01:45:30.271Z,100357.56
2022-12-11T01:48:05.401Z,100358.38
2022-12-11T01:50:37.596Z,100346.94
2022-12-11T01:53:10.342Z,100347.72
2022-12-11T01:55:41.378Z,100354.97
2022-12-11T01:58:13.280Z,100342.47
2022-12-11T02:00:44.723Z,100340.53
2022-12-11T02:03:14.222Z,100354.47
2022-12-11T02:05:43.769Z,100350.97
2022-12-11T02:08:13.957Z,100342.28
2022-12-11T02:11:00.096Z,100338.63
2022-12-11T02:13:39.857Z,100341.06
2022-12-11T02:16:20.791Z,100336.00
2022-12-11T02:18:58.333Z,100334.25
2022-12-11T02:21:32.706Z,100334.72
2022-12-11T02:24:12.906Z,100339.00
2022-12-11T02:27:20.615Z,100336.13
2022-12-11T02:29:57.514Z,100336.34
2022-12-11T02:32:33.313Z,100325.25
2022-12-11T02:35:10.701Z,100326.31
2022-12-11T02:37:43.683Z,100339.41
2022-12-11T02:40:15.844Z,100325.09
2022-12-11T02:42:46.913Z,100313.25
2022-12-11T02:45:19.305Z,100323.72
2022-12-11T02:47:50.853Z,100323.97
2022-12-11T02:50:24.333Z,100321.69
2022-12-11T02:52:57.187Z,100322.41
2022-12-11T02:55:28.983Z,100324.97
2022-12-11T02:58:04.425Z,100325.94
2022-12-11T03:00:35.160Z,100314.38
2022-12-11T03:03:04.694Z,100326.66
2022-12-11T03:05:34.132Z,100297.38
2022-12-11T03:08:03.574Z,100322.31
2022-12-11T03:10:33.192Z,100325.09
2022-12-11T03:13:04.064Z,100318.66
2022-12-11T03:15:42.943Z,100318.97
2022-12-11T03:18:29.003Z,100318.53
2022-12-11T03:21:07.186Z,100324.00
2022-12-11T03:23:45.893Z,100319.09
2022-12-11T03:26:18.653Z,100316.56
2022-12-11T03:28:52.381Z,100325.19
2022-12-11T03:31:27.501Z,100318.53
2022-12-11T03:34:03.032Z,100328.81
2022-12-11T03:36:36.352Z,100328.75
2022-12-11T03:39:11.052Z,100328.03
2022-12-11T03:41:42.872Z,100322.81
2022-12-11T03:44:13.740Z,100330.59
2022-12-11T03:46:47.012Z,100324.50
2022-12-11T03:49:19.166Z,100326.19
2022-12-11T03:51:51.612Z,100327.91
2022-12-11T03:54:21.722Z,100331.44
2022-12-11T03:56:54.981Z,100333.28
2022-12-11T03:59:24.312Z,100319.16
2022-12-11T04:01:54.989Z,100326.47
2022-12-11T04:04:24.472Z,100327.19
2022-12-11T04:06:53.772Z,100317.00
2022-12-11T04:09:23.083Z,100323.44
2022-12-11T04:11:52.319Z,100325.28
2022-12-11T04:14:39.160Z,100312.88
2022-12-11T04:17:09.872Z,100328.19
2022-12-11T04:19:56.727Z,100332.06
2022-12-11T04:22:43.480Z,100332.03
2022-12-11T04:25:12.946Z,100337.09
2022-12-11T04:27:51.486Z,100329.25
2022-12-11T04:30:23.138Z,100327.66
2022-12-11T04:32:54.990Z,100325.16
2022-12-11T04:35:24.580Z,100324.97
2022-12-11T04:37:54.335Z,100323.84
2022-12-11T04:40:23.743Z,100332.66
2022-12-11T04:42:52.987Z,100339.53
2022-12-11T04:45:22.363Z,100336.91
2022-12-11T04:47:51.613Z,100325.03
2022-12-11T04:50:22.320Z,100326.03
2022-12-11T04:52:51.550Z,100310.91
2022-12-11T04:55:21.002Z,100309.63
2022-12-11T04:57:50.287Z,100317.41
2022-12-11T05:00:20.079Z,100311.31
2022-12-11T05:02:49.938Z,100304.63
2022-12-11T05:05:19.587Z,100313.13
2022-12-11T05:07:50.811Z,100312.88
2022-12-11T05:10:20.131Z,100304.84
2022-12-11T05:12:49.474Z,100315.31
2022-12-11T05:15:19.109Z,100309.22
2022-12-11T05:17:48.363Z,100306.09
2022-12-11T05:20:18.145Z,100312.88
2022-12-11T05:22:47.434Z,100316.88
2022-12-11T05:25:18.322Z,100314.31
2022-12-11T05:27:47.640Z,100315.69
2022-12-11T05:30:17.063Z,100317.78
2022-12-11T05:32:46.277Z,100304.13
2022-12-11T05:35:15.602Z,100308.63
2022-12-11T05:37:44.972Z,100302.53
2022-12-11T05:40:14.951Z,100301.38
2022-12-11T05:42:45.572Z,100307.13
2022-12-11T05:45:14.945Z,100298.44
2022-12-11T05:47:44.236Z,100297.81
2022-12-11T05:50:13.509Z,100295.47
2022-12-11T05:52:42.713Z,100297.81
2022-12-11T05:55:12.536Z,100297.22
2022-12-11T05:57:41.961Z,100305.06
2022-12-11T06:00:14.592Z,100291.97
2022-12-11T06:02:44.056Z,100298.38
2022-12-11T06:05:13.584Z,100299.59
2022-12-11T06:07:43.139Z,100306.16
2022-12-11T06:10:12.582Z,100308.09
2022-12-11T06:12:42.193Z,100309.94
2022-12-11T06:15:12.003Z,100304.44
2022-12-11T06:17:42.870Z,100302.75
2022-12-11T06:20:12.957Z,100299.34
2022-12-11T06:22:42.241Z,100302.16
2022-12-11T06:25:11.792Z,100299.41
2022-12-11T06:27:41.216Z,100288.59
2022-12-11T06:30:11.661Z,100284.50
2022-12-11T06:32:42.424Z,100286.56
2022-12-11T06:35:12.353Z,100286.84
2022-12-11T06:37:42.117Z,100268.16
2022-12-11T06:40:13.002Z,100298.56
2022-12-11T06:42:42.266Z,100297.13
2022-12-11T06:45:12.837Z,100282.25
2022-12-11T06:47:43.804Z,100292.66
2022-12-11T06:50:13.152Z,100294.88
2022-12-11T06:52:42.533Z,100293.44
2022-12-11T06:55:11.990Z,100288.09
2022-12-11T06:57:41.441Z,100290.91
2022-12-11T07:00:12.063Z,100292.59
2022-12-11T07:02:41.385Z,100301.63
2022-12-11T07:05:12.981Z,100301.38
2022-12-11T07:07:42.723Z,100298.69
2022-12-11T07:10:12.088Z,100297.25
2022-12-11T07:12:41.369Z,100297.72
2022-12-11T07:15:11.724Z,100299.41
2022-12-11T07:17:41.436Z,100300.38
2022-12-11T07:20:12.648Z,100309.69
2022-12-11T07:22:46.416Z,100307.31
2022-12-11T07:25:16.575Z,100310.13
2022-12-11T07:27:45.883Z,100307.00
2022-12-11T07:30:15.793Z,100315.56
2022-12-11T07:32:45.297Z,100304.75
2022-12-11T07:35:16.021Z,100311.31
2022-12-11T07:37:46.121Z,100313.31
2022-12-11T07:40:15.454Z,100297.34
2022-12-11T07:42:46.437Z,100308.34
2022-12-11T07:45:15.907Z,100304.06
2022-12-11T07:47:45.145Z,100325.34
2022-12-11T07:50:15.822Z,100316.56
2022-12-11T07:52:45.213Z,100318.22
2022-12-11T07:55:14.814Z,100322.03
2022-12-11T07:57:44.012Z,100319.47
2022-12-11T08:00:14.003Z,100322.03
2022-12-11T08:02:43.606Z,100324.72
2022-12-11T08:05:13.493Z,100322.16
2022-12-11T08:07:44.385Z,100317.63
2022-12-11T08:10:13.694Z,100314.44
2022-12-11T08:12:43.054Z,100307.63
2022-12-11T08:15:14.030Z,100314.69
2022-12-11T08:17:43.380Z,100314.69
2022-12-11T08:20:12.696Z,100320.88
2022-12-11T08:22:43.360Z,100315.78
2022-12-11T08:25:13.055Z,100317.19
2022-12-11T08:27:42.467Z,100320.31
2022-12-11T08:30:12.693Z,100320.78
2022-12-11T08:32:42.042Z,100318.78
2022-12-11T08:35:11.865Z,100317.38
2022-12-11T08:37:41.515Z,100317.25
2022-12-11T08:40:14.434Z,100313.25
2022-12-11T08:42:43.693Z,100309.06
2022-12-11T08:45:13.289Z,100290.13
2022-12-11T08:47:43.243Z,100317.03
2022-12-11T08:50:12.522Z,100321.81
2022-12-11T08:52:41.805Z,100325.34
2022-12-11T08:55:13.127Z,100327.88
2022-12-11T08:57:42.692Z,100328.56
2022-12-11T09:00:15.428Z,100318.78
2022-12-11T09:02:44.688Z,100318.63
2022-12-11T09:05:14.198Z,100324.50
2022-12-11T09:07:43.473Z,100326.94
2022-12-11T09:10:14.413Z,100326.94
2022-12-11T09:12:43.704Z,100322.28
2022-12-11T09:15:13.465Z,100331.75
2022-12-11T09:17:42.911Z,100322.56
2022-12-11T09:20:13.123Z,100336.59
2022-12-11T09:22:42.994Z,100329.94
2022-12-11T09:25:13.974Z,100334.44
2022-12-11T09:27:43.329Z,100333.06
2022-12-11T09:30:13.222Z,100325.88
2022-12-11T09:32:42.509Z,100319.09
2022-12-11T09:35:12.485Z,100324.34
2022-12-11T09:37:42.106Z,100323.63
2022-12-11T09:40:15.099Z,100317.31
2022-12-11T09:42:52.709Z,100312.22
2022-12-11T09:45:22.593Z,100302.63
2022-12-11T09:47:54.593Z,100303.91
2022-12-11T09:50:27.377Z,100299.22
2022-12-11T09:53:07.481Z,100304.06
2022-12-11T09:55:44.612Z,100308.31
2022-12-11T09:58:25.861Z,100294.13
2022-12-11T10:01:03.540Z,100303.16
2022-12-11T10:04:02.921Z,100280.34
2022-12-11T10:06:38.290Z,100297.84
2022-12-11T10:09:18.591Z,100290.22
2022-12-11T10:12:03.020Z,100298.16
2022-12-11T10:14:46.403Z,100286.84
2022-12-11T10:17:22.291Z,100300.72
2022-12-11T10:19:52.282Z,100294.69
2022-12-11T10:22:24.532Z,100292.00
2022-12-11T10:25:10.591Z,100290.34
2022-12-11T10:27:43.660Z,100282.09
2022-12-11T10:30:18.349Z,100282.38
2022-12-11T10:32:54.919Z,100276.31
2022-12-11T10:35:36.888Z,100276.97
2022-12-11T10:38:18.683Z,100278.50
2022-12-11T10:40:51.323Z,100274.03
2022-12-11T10:43:22.130Z,100260.88
2022-12-11T10:45:53.197Z,100282.06
2022-12-11T10:48:23.776Z,100282.34
2022-12-11T10:51:04.231Z,100281.81
2022-12-11T10:53:35.402Z,100279.66
2022-12-11T10:56:04.946Z,100263.84
2022-12-11T10:58:41.439Z,100274.47
2022-12-11T11:01:15.574Z,100269.97
2022-12-11T11:03:55.903Z,100271.91
2022-12-11T11:06:26.284Z,100278.69
2022-12-11T11:08:58.263Z,100275.59
2022-12-11T11:11:33.898Z,100271.91
2022-12-11T11:14:16.613Z,100281.81
2022-12-11T11:16:48.014Z,100273.75
2022-12-11T11:19:24.313Z,100287.06
2022-12-11T11:21:56.442Z,100282.53
2022-12-11T11:24:33.056Z,100279.69
2022-12-11T11:27:13.227Z,100274.06
2022-12-11T11:29:48.971Z,100278.31
2022-12-11T11:32:28.373Z,100274.22
2022-12-11T11:35:08.531Z,100265.63
2022-12-11T11:37:38.800Z,100270.53
2022-12-11T11:40:15.222Z,100267.66
2022-12-11T11:42:50.840Z,100267.31
2022-12-11T11:45:26.400Z,100273.06
2022-12-11T11:48:11.334Z,100265.63
2022-12-11T11:50:46.386Z,100264.47
2022-12-11T11:53:21.693Z,100264.19
2022-12-11T11:56:01.057Z,100262.34
2022-12-11T11:58:40.933Z,100264.91
2022-12-11T12:01:16.304Z,100261.94
2022-12-11T12:03:46.792Z,100253.88
2022-12-11T12:06:25.051Z,100262.50
2022-12-11T12:09:04.501Z,100266.97
2022-12-11T12:11:41.131Z,100256.66
2022-12-11T12:16:00.112Z,100258.34
2022-12-11T12:18:38.354Z,100259.78
2022-12-11T12:21:26.473Z,100255.25
2022-12-11T12:24:10.192Z,100255.97
2022-12-11T12:26:43.190Z,100252.56
2022-12-11T12:29:21.593Z,100251.00
2022-12-11T12:32:09.840Z,100251.75
2022-12-11T12:34:51.432Z,100253.16
2022-12-11T12:37:29.543Z,100239.34
2022-12-11T12:40:15.975Z,100244.25
2022-12-11T12:42:54.203Z,100246.31
2022-12-11T12:45:30.748Z,100247.06
2022-12-11T12:48:01.613Z,100253.19
2022-12-11T12:50:39.916Z,100239.63
2022-12-11T12:53:15.700Z,100242.31
2022-12-11T12:55:46.767Z,100245.97
2022-12-11T12:58:29.500Z,100244.72
2022-12-11T13:01:09.941Z,100239.78
2022-12-11T13:03:53.016Z,100240.63
2022-12-11T13:06:35.871Z,100238.75
2022-12-11T13:09:18.305Z,100241.69
2022-12-11T13:11:50.363Z,100242.41
2022-12-11T13:14:31.393Z,100245.34
2022-12-11T13:17:23.253Z,100238.44
2022-12-11T13:20:12.997Z,100234.97
2022-12-11T13:22:55.611Z,100242.75
2022-12-11T13:25:28.487Z,100245.69
2022-12-11T13:28:07.705Z,100246.94
2022-12-11T13:30:37.183Z,100243.47
2022-12-11T13:33:08.106Z,100237.53
2022-12-11T13:35:38.946Z,100231.06
2022-12-11T13:38:16.341Z,100235.75
2022-12-11T13:40:47.784Z,100235.06
2022-12-11T13:43:21.016Z,100227.16
2022-12-11T13:45:52.559Z,100238.66
2022-12-11T13:48:27.203Z,100234.00
2022-12-11T13:50:59.253Z,100238.09
2022-12-11T13:53:29.046Z,100239.94
2022-12-11T13:56:00.634Z,100235.25
2022-12-11T13:58:31.583Z,100233.38
2022-12-11T14:01:11.008Z,100225.13
2022-12-11T14:03:42.283Z,100229.09
2022-12-11T14:06:18.623Z,100235.03
2022-12-11T14:08:51.841Z,100246.53
2022-12-11T14:11:25.113Z,100237.75
2022-12-11T14:13:55.153Z,100232.91
2022-12-11T14:16:26.656Z,100234.69
2022-12-11T14:19:01.680Z,100242.81
2022-12-11T14:21:35.653Z,100241.53
2022-12-11T14:24:06.774Z,100245.91
2022-12-11T14:26:39.074Z,100251.53
2022-12-11T14:29:08.564Z,100252.25
2022-12-11T14:31:40.377Z,100250.03
2022-12-11T14:34:15.153Z,100247.81
2022-12-11T14:36:48.171Z,100250.66
2022-12-11T14:39:22.389Z,100256.66
2022-12-11T14:41:57.114Z,100249.03
2022-12-11T14:44:29.373Z,100253.03
2022-12-11T14:47:02.244Z,100249.63
2022-12-11T14:49:42.172Z,100238.84
2022-12-11T14:52:20.292Z,100240.00
2022-12-11T14:54:54.623Z,100260.59
2022-12-11T14:57:27.281Z,100234.00
2022-12-11T14:59:58.025Z,100261.06
2022-12-11T15:02:31.079Z,100255.88
2022-12-11T15:05:07.203Z,100253.66
2022-12-11T15:07:38.673Z,100258.56
2022-12-11T15:10:08.214Z,100256.47
2022-12-11T15:12:45.962Z,100255.34
2022-12-11T15:15:18.171Z,100263.59
2022-12-11T15:17:52.915Z,100255.34
2022-12-11T15:20:28.352Z,100258.28
2022-12-11T15:23:01.908Z,100260.44
2022-12-11T15:25:32.779Z,100260.75
2022-12-11T15:28:03.004Z,100258.38
2022-12-11T15:30:36.441Z,100260.81
2022-12-11T15:33:22.249Z,100263.22
2022-12-11T15:36:00.153Z,100272.09
2022-12-11T15:38:36.962Z,100258.53
2022-12-11T15:41:07.570Z,100272.69
2022-12-11T15:43:39.104Z,100271.25
2022-12-11T15:46:08.586Z,100273.22
2022-12-11T15:48:38.020Z,100268.84
2022-12-11T15:51:08.484Z,100263.94
2022-12-11T15:53:39.456Z,100268.88
2022-12-11T15:56:11.240Z,100261.00
2022-12-11T15:58:40.732Z,100269.56
2022-12-11T16:01:10.189Z,100267.22
2022-12-11T16:03:39.612Z,100272.31
2022-12-11T16:06:12.269Z,100266.44
2022-12-11T16:08:43.433Z,100271.53
2022-12-11T16:11:15.207Z,100269.84
2022-12-11T16:13:44.836Z,100270.09
2022-12-11T16:16:14.251Z,100271.53
2022-12-11T16:18:43.562Z,100271.94
2022-12-11T16:21:15.637Z,100265.28
2022-12-11T16:23:50.802Z,100264.56
2022-12-11T16:26:20.513Z,100266.69
2022-12-11T16:28:49.919Z,100274.88
2022-12-11T16:31:20.155Z,100267.00
2022-12-11T16:33:49.561Z,100270.53
2022-12-11T16:36:21.595Z,100269.03
2022-12-11T16:38:54.141Z,100267.06
2022-12-11T16:41:24.190Z,100273.09
2022-12-11T16:43:54.788Z,100265.59
2022-12-11T16:46:25.395Z,100267.44
2022-12-11T16:48:55.170Z,100268.53
2022-12-11T16:51:24.778Z,100269.91
2022-12-11T16:53:55.702Z,100289.50
2022-12-11T16:56:25.619Z,100279.09
2022-12-11T16:58:55.134Z,100279.47
2022-12-11T17:01:24.599Z,100279.94
2022-12-11T17:03:54.016Z,100273.16
2022-12-11T17:06:23.406Z,100272.59
2022-12-11T17:08:53.613Z,100270.16
2022-12-11T17:11:26.464Z,100271.91
2022-12-11T17:13:56.683Z,100283.56
2022-12-11T17:16:29.207Z,100266.53
2022-12-11T17:18:59.109Z,100270.38
2022-12-11T17:21:28.572Z,100271.78
2022-12-11T17:23:57.903Z,100272.78
2022-12-11T17:26:28.823Z,100268.69
2022-12-11T17:28:58.503Z,100268.69
2022-12-11T17:31:28.550Z,100271.38
2022-12-11T17:34:00.829Z,100273.78
2022-12-11T17:36:30.395Z,100256.50
2022-12-11T17:38:59.603Z,100271.78
2022-12-11T17:41:30.408Z,100269.31
2022-12-11T17:43:59.942Z,100273.03
2022-12-11T17:46:29.702Z,100278.03
2022-12-11T17:49:00.322Z,100272.78
2022-12-11T17:51:29.785Z,100273.06
2022-12-11T17:53:59.785Z,100263.31
2022-12-11T17:56:30.538Z,100275.47
2022-12-11T17:58:59.913Z,100270.06
2022-12-11T18:01:29.289Z,100277.00
2022-12-11T18:04:00.346Z,100272.59
2022-12-11T18:06:30.703Z,100277.38
2022-12-11T18:09:00.136Z,100274.25
2022-12-11T18:11:31.069Z,100274.00
2022-12-11T18:14:00.489Z,100266.63
2022-12-11T18:16:32.185Z,100272.59
2022-12-11T18:19:01.816Z,100272.72
2022-12-11T18:21:34.277Z,100275.19
2022-12-11T18:24:04.043Z,100275.16
2022-12-11T18:26:34.830Z,100279.66
2022-12-11T18:29:05.326Z,100281.63
2022-12-11T18:31:40.566Z,100280.47
2022-12-11T18:34:12.492Z,100268.63
2022-12-11T18:36:42.093Z,100266.06
2022-12-11T18:39:12.430Z,100274.38
2022-12-11T18:41:43.253Z,100270.84
2022-12-11T18:44:12.701Z,100272.53
2022-12-11T18:46:42.068Z,100272.69
2022-12-11T18:49:11.595Z,100274.91
2022-12-11T18:51:40.998Z,100265.28
2022-12-11T18:54:10.680Z,100266.84
2022-12-11T18:56:41.862Z,100268.91
2022-12-11T18:59:14.660Z,100261.56
2022-12-11T19:01:44.208Z,100265.28
2022-12-11T19:04:13.653Z,100262.94
2022-12-11T19:06:42.934Z,100262.78
2022-12-11T19:09:14.373Z,100262.59
2022-12-11T19:11:43.917Z,100266.13
2022-12-11T19:14:15.682Z,100265.53
2022-12-11T19:16:45.721Z,100262.41
2022-12-11T19:19:16.881Z,100262.03
2022-12-11T19:21:46.760Z,100261.59
2022-12-11T19:24:18.085Z,100271.31
2022-12-11T19:26:47.477Z,100269.69
2022-12-11T19:29:23.371Z,100271.69
2022-12-11T19:31:53.043Z,100278.47
2022-12-11T19:34:22.802Z,100282.16
2022-12-11T19:36:52.080Z,100273.13
2022-12-11T19:39:21.444Z,100275.78
2022-12-11T19:41:51.208Z,100271.91
2022-12-11T19:44:21.962Z,100269.22
2022-12-11T19:46:51.529Z,100272.59
2022-12-11T19:49:21.042Z,100266.53
2022-12-11T19:51:50.382Z,100274.31
2022-12-11T19:54:19.943Z,100267.22
2022-12-11T19:56:49.413Z,100273.72
2022-12-11T19:59:19.316Z,100272.31
2022-12-11T20:01:50.304Z,100278.53
2022-12-11T20:04:20.195Z,100267.50
2022-12-11T20:06:49.993Z,100278.09
2022-12-11T20:09:19.669Z,100280.59
2022-12-11T20:11:49.312Z,100274.25
2022-12-11T20:14:22.693Z,100278.38
2022-12-11T20:17:11.996Z,100272.47
2022-12-11T20:19:43.038Z,100269.53
2022-12-11T20:22:12.739Z,100273.38
2022-12-11T20:24:42.016Z,100272.38
2022-12-11T20:27:12.605Z,100261.25
2022-12-11T20:29:42.113Z,100277.56
2022-12-11T20:32:12.967Z,100265.91
2022-12-11T20:34:42.413Z,100272.72
2022-12-11T20:37:12.536Z,100275.03
2022-12-11T20:39:41.969Z,100271.97
2022-12-11T20:42:14.434Z,100275.50
2022-12-11T20:44:48.727Z,100279.31
2022-12-11T20:47:20.910Z,100273.41
2022-12-11T20:49:51.910Z,100286.16
2022-12-11T20:52:22.573Z,100278.72
2022-12-11T20:54:51.861Z,100274.81
2022-12-11T20:57:22.585Z,100281.56
2022-12-11T20:59:51.918Z,100285.16
2022-12-11T21:02:22.841Z,100282.13
2022-12-11T21:04:52.391Z,100282.25
2022-12-11T21:07:21.750Z,100282.78
2022-12-11T21:09:51.138Z,100290.91
2022-12-11T21:12:20.468Z,100286.66
2022-12-11T21:14:49.773Z,100293.97
2022-12-11T21:17:19.593Z,100287.72
2022-12-11T21:19:50.645Z,100295.69
2022-12-11T21:22:20.048Z,100302.28
2022-12-11T21:24:49.302Z,100297.19
2022-12-11T21:27:18.785Z,100300.28
2022-12-11T21:29:48.098Z,100303.06
2022-12-11T21:32:17.859Z,100291.97
2022-12-11T21:34:47.177Z,100288.47
2022-12-11T21:37:17.956Z,100291.59
2022-12-11T21:39:47.364Z,100298.88
2022-12-11T21:42:16.643Z,100296.47
2022-12-11T21:47:35.274Z,100281.03
2022-12-11T21:50:05.111Z,100289.84
2022-12-11T21:52:35.815Z,100287.63
2022-12-11T21:55:05.279Z,100284.41
2022-12-11T21:57:34.912Z,100290.22
2022-12-11T22:00:05.493Z,100291.03
2022-12-11T22:02:41.523Z,100272.84
2022-12-11T22:05:11.295Z,100288.66
2022-12-11T22:07:42.312Z,100287.78
2022-12-11T22:10:12.150Z,100292.91
2022-12-11T22:12:41.433Z,100291.06
2022-12-11T22:15:11.426Z,100296.88
2022-12-11T22:17:41.063Z,100302.69
2022-12-11T22:20:11.072Z,100305.94
2022-12-11T22:22:41.831Z,100300.78
2022-12-11T22:25:11.717Z,100294.13
2022-12-11T22:27:41.276Z,100297.78
2022-12-11T22:30:12.010Z,100300.47
2022-12-11T22:32:41.803Z,100304.28
2022-12-11T22:35:11.890Z,100298.06
2022-12-11T22:37:42.797Z,100301.41
2022-12-11T22:40:12.312Z,100302.03
2022-12-11T22:42:44.241Z,100302.38
2022-12-11T22:45:14.059Z,100300.91
2022-12-11T22:47:43.541Z,100295.16
2022-12-11T22:50:14.512Z,100298.16
2022-12-11T22:52:45.661Z,100294.28
2022-12-11T22:55:15.351Z,100303.84
2022-12-11T22:57:44.638Z,100301.63
2022-12-11T23:00:15.982Z,100300.25
2022-12-11T23:02:45.378Z,100299.84
2022-12-11T23:05:15.822Z,100298.38
2022-12-11T23:07:46.786Z,100298.13
2022-12-11T23:10:16.145Z,100303.69
2022-12-11T23:12:45.561Z,100299.59
2022-12-11T23:15:15.146Z,100307.91
2022-12-11T23:17:44.853Z,100310.66
2022-12-11T23:20:14.253Z,100308.38
2022-12-11T23:22:43.811Z,100300.66
2022-12-11T23:25:15.821Z,100301.13
2022-12-11T23:27:45.472Z,100301.16
2022-12-11T23:30:15.504Z,100300.84
2022-12-11T23:32:44.791Z,100304.06
2022-12-11T23:35:14.386Z,100307.06
2022-12-11T23:37:43.911Z,100312.22
2022-12-11T23:40:15.593Z,100313.59
2022-12-11T23:42:44.971Z,100313.41
2022-12-11T23:45:14.758Z,100307.97
2022-12-11T23:47:44.341Z,100300.25
2022-12-11T23:50:13.680Z,100308.31
2022-12-11T23:52:43.050Z,100304.56
2022-12-11T23:55:13.432Z,100309.72
2022-12-11T23:57:44.339Z,100307.06
